sensor_id;sensor_type;location;lat;lon;timestamp;pressure;altitude;pressure_sealevel;temperature;humidity
55664;BME280;41540;57.880;12.164;2023-09-19T00:08:20;98234.34;;;16.09;nan
55664;BME280;41540;57.880;12.164;2023-09-19T00:18:25;98191.25;;;15.99;nan
55664;BME280;41540;57.880;12.164;2023-09-19T00:28:32;98179.25;;;15.95;nan
55664;BME280;41540;57.880;12.164;2023-09-19T00:38:33;98224.38;;;16.40;nan
55664;BME280;41540;57.880;12.164;2023-09-19T00:48:40;98253.81;;;16.43;nan
55664;BME280;41540;57.880;12.164;2023-09-19T00:58:41;98273.34;;;16.55;nan
55664;BME280;41540;57.880;12.164;2023-09-19T01:08:41;98246.94;;;16.61;nan
55664;BME280;41540;57.880;12.164;2023-09-19T01:39:10;98202.25;;;16.28;nan
55664;BME280;41540;57.880;12.164;2023-09-19T01:59:14;98092.81;;;15.60;nan
55664;BME280;41540;57.880;12.164;2023-09-19T02:09:16;98185.78;;;16.26;nan
55664;BME280;41540;57.880;12.164;2023-09-19T02:19:17;98164.00;;;16.25;nan
55664;BME280;41540;57.880;12.164;2023-09-19T02:29:17;98141.28;;;16.27;nan
55664;BME280;41540;57.880;12.164;2023-09-19T02:39:18;98084.44;;;16.13;nan
55664;BME280;41540;57.880;12.164;2023-09-19T02:49:18;98060.31;;;16.27;nan
55664;BME280;41540;57.880;12.164;2023-09-19T02:59:18;97986.53;;;15.64;nan
55664;BME280;41540;57.880;12.164;2023-09-19T03:09:19;98086.44;;;16.27;nan
55664;BME280;41540;57.880;12.164;2023-09-19T03:19:19;98061.66;;;16.17;nan
55664;BME280;41540;57.880;12.164;2023-09-19T03:29:21;98091.03;;;16.22;nan
55664;BME280;41540;57.880;12.164;2023-09-19T03:39:21;98069.72;;;15.92;nan
55664;BME280;41540;57.880;12.164;2023-09-19T03:49:22;98109.72;;;15.92;nan
55664;BME280;41540;57.880;12.164;2023-09-19T03:59:22;98140.28;;;15.90;nan
55664;BME280;41540;57.880;12.164;2023-09-19T04:09:22;98203.78;;;15.91;nan
55664;BME280;41540;57.880;12.164;2023-09-19T04:19:23;98208.94;;;15.70;nan
55664;BME280;41540;57.880;12.164;2023-09-19T04:29:23;98266.72;;;15.61;nan
55664;BME280;41540;57.880;12.164;2023-09-19T04:39:23;98256.53;;;15.55;nan
55664;BME280;41540;57.880;12.164;2023-09-19T04:49:25;98277.69;;;15.47;nan
55664;BME280;41540;57.880;12.164;2023-09-19T04:59:26;98243.84;;;15.24;nan
55664;BME280;41540;57.880;12.164;2023-09-19T05:09:26;98249.91;;;15.00;nan
55664;BME280;41540;57.880;12.164;2023-09-19T05:19:26;98327.22;;;15.01;nan
55664;BME280;41540;57.880;12.164;2023-09-19T05:29:27;98240.84;;;14.12;nan
55664;BME280;41540;57.880;12.164;2023-09-19T05:39:29;98394.78;;;14.56;nan
55664;BME280;41540;57.880;12.164;2023-09-19T05:49:29;98429.19;;;14.67;nan
55664;BME280;41540;57.880;12.164;2023-09-19T05:59:29;98455.09;;;14.43;nan
55664;BME280;41540;57.880;12.164;2023-09-19T06:09:30;98468.91;;;14.46;nan
55664;BME280;41540;57.880;12.164;2023-09-19T06:19:32;98489.72;;;14.19;nan
55664;BME280;41540;57.880;12.164;2023-09-19T06:29:33;98626.03;;;14.18;nan
55664;BME280;41540;57.880;12.164;2023-09-19T06:39:34;98644.63;;;13.71;nan
55664;BME280;41540;57.880;12.164;2023-09-19T06:49:34;98633.41;;;12.96;nan
55664;BME280;41540;57.880;12.164;2023-09-19T06:59:35;98681.88;;;13.37;nan
55664;BME280;41540;57.880;12.164;2023-09-19T07:09:37;98689.34;;;13.51;nan
55664;BME280;41540;57.880;12.164;2023-09-19T07:19:37;98630.50;;;14.13;nan
55664;BME280;41540;57.880;12.164;2023-09-19T07:29:38;98548.94;;;13.81;nan
55664;BME280;41540;57.880;12.164;2023-09-19T07:39:39;98647.53;;;14.56;nan
55664;BME280;41540;57.880;12.164;2023-09-19T07:49:41;98671.91;;;13.89;nan
55664;BME280;41540;57.880;12.164;2023-09-19T07:59:42;98681.22;;;14.64;nan
55664;BME280;41540;57.880;12.164;2023-09-19T08:09:43;98661.47;;;16.67;nan
55664;BME280;41540;57.880;12.164;2023-09-19T08:19:49;98626.25;;;14.99;nan
55664;BME280;41540;57.880;12.164;2023-09-19T08:29:53;98621.78;;;16.33;nan
55664;BME280;41540;57.880;12.164;2023-09-19T08:39:53;98544.75;;;16.20;nan
55664;BME280;41540;57.880;12.164;2023-09-19T08:50:27;98651.84;;;14.55;nan
55664;BME280;41540;57.880;12.164;2023-09-19T09:00:28;98674.72;;;14.14;nan
55664;BME280;41540;57.880;12.164;2023-09-19T09:10:30;98661.75;;;15.32;nan
55664;BME280;41540;57.880;12.164;2023-09-19T09:20:30;98680.28;;;14.94;nan
55664;BME280;41540;57.880;12.164;2023-09-19T09:30:37;98657.38;;;16.12;nan
55664;BME280;41540;57.880;12.164;2023-09-19T09:40:47;98691.94;;;15.94;nan
55664;BME280;41540;57.880;12.164;2023-09-19T09:50:52;98668.53;;;15.37;nan
55664;BME280;41540;57.880;12.164;2023-09-19T10:00:56;98612.28;;;15.29;nan
55664;BME280;41540;57.880;12.164;2023-09-19T10:10:57;98716.31;;;15.66;nan
55664;BME280;41540;57.880;12.164;2023-09-19T10:21:05;98679.56;;;13.95;nan
55664;BME280;41540;57.880;12.164;2023-09-19T10:31:09;98732.28;;;14.03;nan
55664;BME280;41540;57.880;12.164;2023-09-19T10:41:10;98546.78;;;13.30;nan
55664;BME280;41540;57.880;12.164;2023-09-19T10:51:16;98737.84;;;14.57;nan
55664;BME280;41540;57.880;12.164;2023-09-19T11:01:17;98708.94;;;13.64;nan
55664;BME280;41540;57.880;12.164;2023-09-19T11:21:40;98642.16;;;14.62;nan
55664;BME280;41540;57.880;12.164;2023-09-19T11:31:43;98723.25;;;14.17;nan
55664;BME280;41540;57.880;12.164;2023-09-19T11:41:44;98712.16;;;15.04;nan
55664;BME280;41540;57.880;12.164;2023-09-19T11:51:47;98830.22;;;15.69;nan
55664;BME280;41540;57.880;12.164;2023-09-19T12:01:53;98797.88;;;15.16;nan
55664;BME280;41540;57.880;12.164;2023-09-19T12:12:00;98826.72;;;15.40;nan
55664;BME280;41540;57.880;12.164;2023-09-19T12:22:02;98842.91;;;15.51;nan
55664;BME280;41540;57.880;12.164;2023-09-19T12:32:04;98860.47;;;15.76;nan
55664;BME280;41540;57.880;12.164;2023-09-19T12:42:09;98853.53;;;15.76;nan
55664;BME280;41540;57.880;12.164;2023-09-19T12:52:10;98850.31;;;15.95;nan
55664;BME280;41540;57.880;12.164;2023-09-19T13:02:11;98857.50;;;15.58;nan
55664;BME280;41540;57.880;12.164;2023-09-19T13:12:38;98734.34;;;13.91;nan
55664;BME280;41540;57.880;12.164;2023-09-19T13:22:40;98741.81;;;14.04;nan
55664;BME280;41540;57.880;12.164;2023-09-19T13:32:46;98844.41;;;14.32;nan
55664;BME280;41540;57.880;12.164;2023-09-19T13:42:47;98837.84;;;14.17;nan
55664;BME280;41540;57.880;12.164;2023-09-19T13:52:47;98735.75;;;13.68;nan
55664;BME280;41540;57.880;12.164;2023-09-19T14:02:48;98838.56;;;14.23;nan
55664;BME280;41540;57.880;12.164;2023-09-19T14:12:49;98849.38;;;14.07;nan
55664;BME280;41540;57.880;12.164;2023-09-19T14:22:49;98845.19;;;13.62;nan
55664;BME280;41540;57.880;12.164;2023-09-19T14:32:50;98806.00;;;13.68;nan
55664;BME280;41540;57.880;12.164;2023-09-19T14:42:51;98696.13;;;12.79;nan
55664;BME280;41540;57.880;12.164;2023-09-19T14:52:51;98820.63;;;12.44;nan
55664;BME280;41540;57.880;12.164;2023-09-19T15:02:53;98827.44;;;12.00;nan
55664;BME280;41540;57.880;12.164;2023-09-19T15:12:55;98806.03;;;11.83;nan
55664;BME280;41540;57.880;12.164;2023-09-19T15:22:55;98697.69;;;10.84;nan
55664;BME280;41540;57.880;12.164;2023-09-19T15:32:55;98864.22;;;11.66;nan
55664;BME280;41540;57.880;12.164;2023-09-19T15:42:56;98856.47;;;11.63;nan
55664;BME280;41540;57.880;12.164;2023-09-19T15:52:57;98714.09;;;10.83;nan
55664;BME280;41540;57.880;12.164;2023-09-19T16:02:58;98831.47;;;11.59;nan
55664;BME280;41540;57.880;12.164;2023-09-19T16:12:58;98781.66;;;11.34;nan
55664;BME280;41540;57.880;12.164;2023-09-19T16:22:59;98778.22;;;11.34;nan
55664;BME280;41540;57.880;12.164;2023-09-19T16:33:00;98754.25;;;11.19;nan
55664;BME280;41540;57.880;12.164;2023-09-19T16:43:00;98742.81;;;11.32;nan
55664;BME280;41540;57.880;12.164;2023-09-19T16:53:01;98726.34;;;11.35;nan
55664;BME280;41540;57.880;12.164;2023-09-19T17:03:01;98691.88;;;11.28;nan
55664;BME280;41540;57.880;12.164;2023-09-19T17:13:03;98499.06;;;11.36;nan
55664;BME280;41540;57.880;12.164;2023-09-19T17:23:08;98405.09;;;11.24;nan
55664;BME280;41540;57.880;12.164;2023-09-19T17:33:08;98381.38;;;11.44;nan
55664;BME280;41540;57.880;12.164;2023-09-19T17:43:09;98200.63;;;10.71;nan
55664;BME280;41540;57.880;12.164;2023-09-19T17:53:09;98257.63;;;11.51;nan
55664;BME280;41540;57.880;12.164;2023-09-19T18:03:11;98175.31;;;11.61;nan
55664;BME280;41540;57.880;12.164;2023-09-19T18:13:12;98099.97;;;11.65;nan
55664;BME280;41540;57.880;12.164;2023-09-19T18:23:13;98007.03;;;11.50;nan
55664;BME280;41540;57.880;12.164;2023-09-19T18:33:14;97843.06;;;11.12;nan
55664;BME280;41540;57.880;12.164;2023-09-19T18:43:15;97887.84;;;12.35;nan
55664;BME280;41540;57.880;12.164;2023-09-19T18:53:17;97658.50;;;12.36;nan
55664;BME280;41540;57.880;12.164;2023-09-19T19:03:18;97624.31;;;12.94;nan
55664;BME280;41540;57.880;12.164;2023-09-19T19:13:19;97688.47;;;14.02;nan
55664;BME280;41540;57.880;12.164;2023-09-19T19:23:19;97664.16;;;14.23;nan
55664;BME280;41540;57.880;12.164;2023-09-19T19:33:20;97577.13;;;14.48;nan
55664;BME280;41540;57.880;12.164;2023-09-19T19:43:22;97581.66;;;14.64;nan
55664;BME280;41540;57.880;12.164;2023-09-19T19:53:25;97607.00;;;14.60;nan
55664;BME280;41540;57.880;12.164;2023-09-19T20:03:26;97580.81;;;14.63;nan
55664;BME280;41540;57.880;12.164;2023-09-19T20:13:27;97513.56;;;14.14;nan
55664;BME280;41540;57.880;12.164;2023-09-19T20:23:28;97631.72;;;14.70;nan
55664;BME280;41540;57.880;12.164;2023-09-19T20:33:28;97579.25;;;14.19;nan
55664;BME280;41540;57.880;12.164;2023-09-19T20:43:31;97615.53;;;14.03;nan
55664;BME280;41540;57.880;12.164;2023-09-19T20:53:37;97790.50;;;14.53;nan
55664;BME280;41540;57.880;12.164;2023-09-19T21:03:38;97864.13;;;14.14;nan
55664;BME280;41540;57.880;12.164;2023-09-19T21:13:38;97944.81;;;13.92;nan
55664;BME280;41540;57.880;12.164;2023-09-19T21:23:41;98043.25;;;13.80;nan
55664;BME280;41540;57.880;12.164;2023-09-19T21:33:42;98103.06;;;13.55;nan
55664;BME280;41540;57.880;12.164;2023-09-19T21:43:46;98174.59;;;13.42;nan
55664;BME280;41540;57.880;12.164;2023-09-19T21:53:49;98233.84;;;13.32;nan
55664;BME280;41540;57.880;12.164;2023-09-19T22:03:51;98264.38;;;13.25;nan
55664;BME280;41540;57.880;12.164;2023-09-19T22:13:51;98335.38;;;13.27;nan
55664;BME280;41540;57.880;12.164;2023-09-19T22:23:51;98360.72;;;13.19;nan
55664;BME280;41540;57.880;12.164;2023-09-19T22:33:55;98296.66;;;12.54;nan
55664;BME280;41540;57.880;12.164;2023-09-19T22:43:55;98379.53;;;12.96;nan
55664;BME280;41540;57.880;12.164;2023-09-19T22:53:56;98404.72;;;12.94;nan
55664;BME280;41540;57.880;12.164;2023-09-19T23:03:59;98430.91;;;12.86;nan
55664;BME280;41540;57.880;12.164;2023-09-19T23:14:12;98463.69;;;12.92;nan
55664;BME280;41540;57.880;12.164;2023-09-19T23:24:13;98382.97;;;12.29;nan
55664;BME280;41540;57.880;12.164;2023-09-19T23:34:17;98482.72;;;12.93;nan
55664;BME280;41540;57.880;12.164;2023-09-19T23:44:17;98458.50;;;12.92;nan
55664;BME280;41540;57.880;12.164;2023-09-19T23:54:18;98425.50;;;12.61;nan
